createdAt,value
2023-06-29T00:02:00.636Z,6.33
2023-06-29T00:04:27.431Z,6.00
2023-06-29T00:06:54.067Z,5.73
2023-06-29T00:09:20.759Z,5.97
2023-06-29T00:11:47.270Z,5.80
2023-06-29T00:14:13.826Z,5.61
2023-06-29T00:16:40.498Z,5.77
2023-06-29T00:19:07.147Z,6.04
2023-06-29T00:21:33.619Z,6.18
2023-06-29T00:24:00.284Z,6.01
2023-06-29T00:26:26.827Z,5.78
2023-06-29T00:28:53.456Z,5.92
2023-06-29T00:31:20.055Z,6.08
2023-06-29T00:33:46.664Z,5.81
2023-06-29T00:36:14.276Z,5.54
2023-06-29T00:38:40.820Z,5.81
2023-06-29T00:41:07.418Z,5.79
2023-06-29T00:43:33.917Z,6.00
2023-06-29T00:46:00.549Z,5.99
2023-06-29T00:48:27.184Z,5.76
2023-06-29T00:50:53.777Z,5.89
2023-06-29T00:53:20.301Z,5.57
2023-06-29T00:55:46.903Z,5.65
2023-06-29T00:58:13.406Z,5.59
2023-06-29T01:00:39.937Z,5.56
2023-06-29T01:03:06.596Z,5.39
2023-06-29T01:05:33.212Z,5.18
2023-06-29T01:07:59.705Z,5.68
2023-06-29T01:10:26.271Z,5.63
2023-06-29T01:12:52.764Z,5.30
2023-06-29T01:15:19.352Z,5.26
2023-06-29T01:17:45.895Z,5.59
2023-06-29T01:20:14.913Z,5.63
2023-06-29T01:22:41.474Z,5.65
2023-06-29T01:25:08.051Z,5.65
2023-06-29T01:27:34.664Z,5.44
2023-06-29T01:30:01.234Z,5.32
2023-06-29T01:32:30.700Z,5.29
2023-06-29T01:34:57.328Z,5.39
2023-06-29T01:37:23.955Z,5.28
2023-06-29T01:39:50.623Z,5.51
2023-06-29T01:42:17.235Z,5.11
2023-06-29T01:44:43.759Z,5.46
2023-06-29T01:47:10.320Z,5.12
2023-06-29T01:49:36.983Z,4.96
2023-06-29T01:52:03.618Z,5.61
2023-06-29T01:54:30.259Z,5.31
2023-06-29T01:56:56.836Z,5.41
2023-06-29T01:59:24.455Z,5.26
2023-06-29T02:01:51.112Z,5.24
2023-06-29T02:04:17.784Z,5.38
2023-06-29T02:06:44.338Z,5.10
2023-06-29T02:09:10.912Z,5.23
2023-06-29T02:11:37.356Z,5.23
2023-06-29T02:14:03.974Z,5.15
2023-06-29T02:16:30.670Z,4.97
2023-06-29T02:18:57.322Z,4.97
2023-06-29T02:21:23.925Z,5.07
2023-06-29T02:23:50.458Z,4.96
2023-06-29T02:26:16.986Z,5.03
2023-06-29T02:28:43.571Z,4.90
2023-06-29T02:31:10.212Z,4.82
2023-06-29T02:33:36.790Z,4.68
2023-06-29T02:36:03.389Z,4.81
2023-06-29T02:38:30.057Z,4.80
2023-06-29T02:40:56.690Z,4.79
2023-06-29T02:43:23.187Z,4.76
2023-06-29T02:45:49.774Z,4.97
2023-06-29T02:48:16.369Z,4.95
2023-06-29T02:50:42.943Z,4.89
2023-06-29T02:53:09.485Z,4.66
2023-06-29T02:55:36.101Z,4.50
2023-06-29T02:58:02.629Z,4.56
2023-06-29T03:00:29.311Z,4.86
2023-06-29T03:02:55.994Z,4.52
2023-06-29T03:05:22.673Z,4.77
2023-06-29T03:07:49.277Z,4.42
2023-06-29T03:10:15.784Z,4.37
2023-06-29T03:12:42.392Z,4.50
2023-06-29T03:15:08.905Z,4.63
2023-06-29T03:17:35.482Z,4.65
2023-06-29T03:20:02.021Z,4.50
2023-06-29T03:22:28.556Z,4.60
2023-06-29T03:24:55.186Z,4.88
2023-06-29T03:27:21.792Z,4.43
2023-06-29T03:29:48.267Z,4.57
2023-06-29T03:32:14.823Z,4.28
2023-06-29T03:34:41.339Z,4.35
2023-06-29T03:37:07.861Z,4.39
2023-06-29T03:39:34.425Z,4.40
2023-06-29T03:42:01.071Z,4.47
2023-06-29T03:44:27.570Z,4.65
2023-06-29T03:46:54.048Z,4.83
2023-06-29T03:49:20.563Z,4.63
2023-06-29T03:51:47.110Z,4.25
2023-06-29T03:54:13.637Z,4.47
2023-06-29T03:56:40.168Z,4.40
2023-06-29T03:59:06.770Z,4.32
2023-06-29T04:01:33.284Z,4.46
2023-06-29T04:03:59.991Z,4.39
2023-06-29T04:06:26.733Z,4.47
2023-06-29T04:08:53.190Z,4.24
2023-06-29T04:11:19.720Z,4.22
2023-06-29T04:13:46.350Z,4.52
2023-06-29T04:16:13.011Z,4.30
2023-06-29T04:18:39.655Z,4.46
2023-06-29T04:21:06.279Z,4.36
2023-06-29T04:23:32.881Z,4.24
2023-06-29T04:25:59.539Z,4.16
2023-06-29T04:28:26.049Z,4.24
2023-06-29T04:30:52.600Z,4.55
2023-06-29T04:33:19.182Z,4.25
2023-06-29T04:35:46.230Z,4.15
2023-06-29T04:38:13.126Z,4.20
2023-06-29T04:40:39.713Z,4.26
2023-06-29T04:43:06.280Z,4.32
2023-06-29T04:45:32.890Z,4.13
2023-06-29T04:47:59.549Z,4.31
2023-06-29T04:50:26.264Z,4.34
2023-06-29T04:52:53.170Z,3.82
2023-06-29T04:55:19.680Z,4.17
2023-06-29T04:57:46.242Z,4.22
2023-06-29T05:00:12.771Z,4.05
2023-06-29T05:02:39.421Z,4.11
2023-06-29T05:05:05.991Z,4.35
2023-06-29T05:07:32.579Z,4.28
2023-06-29T05:09:59.104Z,4.23
2023-06-29T05:12:25.557Z,4.62
2023-06-29T05:14:52.048Z,4.41
2023-06-29T05:17:18.715Z,4.35
2023-06-29T05:19:45.252Z,4.82
2023-06-29T05:22:11.717Z,4.60
2023-06-29T05:24:38.259Z,4.31
2023-06-29T05:27:05.011Z,4.57
2023-06-29T05:29:31.565Z,4.23
2023-06-29T05:31:58.140Z,4.63
2023-06-29T05:34:24.808Z,4.79
2023-06-29T05:36:51.332Z,4.48
2023-06-29T05:39:17.902Z,4.58
2023-06-29T05:41:44.460Z,4.82
2023-06-29T05:44:10.992Z,4.51
2023-06-29T05:46:37.846Z,4.65
2023-06-29T05:49:07.196Z,4.75
2023-06-29T05:51:33.764Z,4.77
2023-06-29T05:54:00.312Z,4.44
2023-06-29T05:56:26.817Z,4.64
2023-06-29T05:58:53.326Z,4.63
2023-06-29T06:01:19.982Z,4.83
2023-06-29T06:03:46.717Z,4.55
2023-06-29T06:06:13.295Z,4.74
2023-06-29T06:08:39.867Z,4.56
2023-06-29T06:11:06.360Z,4.83
2023-06-29T06:13:32.825Z,4.75
2023-06-29T06:15:59.397Z,4.61
2023-06-29T06:18:25.932Z,4.45
2023-06-29T06:20:52.516Z,4.55
2023-06-29T06:23:19.063Z,4.55
2023-06-29T06:25:45.675Z,4.47
2023-06-29T06:28:12.364Z,4.51
2023-06-29T06:30:39.006Z,4.63
2023-06-29T06:33:05.728Z,4.71
2023-06-29T06:35:32.311Z,4.68
2023-06-29T06:37:58.877Z,4.52
2023-06-29T06:40:25.464Z,4.64
2023-06-29T06:42:52.008Z,4.57
2023-06-29T06:45:18.626Z,4.43
2023-06-29T06:47:45.356Z,4.57
2023-06-29T06:50:12.126Z,4.47
2023-06-29T06:52:38.693Z,4.24
2023-06-29T06:55:05.326Z,4.41
2023-06-29T06:57:31.861Z,4.43
2023-06-29T06:59:58.447Z,4.25
2023-06-29T07:02:25.137Z,4.48
2023-06-29T07:04:51.834Z,4.29
2023-06-29T07:07:18.438Z,4.40
2023-06-29T07:09:45.109Z,4.32
2023-06-29T07:12:11.664Z,4.19
2023-06-29T07:14:38.280Z,4.50
2023-06-29T07:17:04.821Z,4.21
2023-06-29T07:24:30.312Z,4.49
2023-06-29T07:26:56.914Z,4.42
2023-06-29T07:29:23.486Z,4.37
2023-06-29T07:31:50.070Z,4.57
2023-06-29T07:34:16.705Z,4.20
2023-06-29T07:36:43.261Z,4.30
2023-06-29T07:39:09.929Z,4.41
2023-06-29T07:41:36.488Z,3.98
2023-06-29T07:44:03.070Z,4.30
2023-06-29T07:46:29.609Z,4.28
2023-06-29T07:48:56.501Z,4.46
2023-06-29T07:51:23.203Z,4.31
2023-06-29T07:53:49.750Z,4.29
2023-06-29T07:56:16.443Z,4.50
2023-06-29T07:58:43.043Z,4.05
2023-06-29T08:01:09.654Z,4.17
2023-06-29T08:03:55.904Z,4.35
2023-06-29T08:08:52.510Z,4.23
2023-06-29T08:11:19.316Z,3.99
2023-06-29T08:13:46.002Z,4.16
2023-06-29T08:16:12.616Z,4.16
2023-06-29T08:18:39.389Z,4.00
2023-06-29T08:21:06.067Z,4.38
2023-06-29T08:23:32.573Z,4.23
2023-06-29T08:25:59.107Z,4.19
2023-06-29T08:28:25.696Z,4.09
2023-06-29T08:30:52.246Z,4.13
2023-06-29T08:33:18.855Z,4.04
2023-06-29T08:35:45.508Z,4.44
2023-06-29T08:38:12.058Z,4.12
2023-06-29T08:40:38.633Z,4.13
2023-06-29T08:43:05.162Z,4.06
2023-06-29T08:45:31.649Z,4.04
2023-06-29T08:47:58.401Z,4.11
2023-06-29T08:50:25.007Z,4.33
2023-06-29T08:52:51.601Z,4.11
2023-06-29T08:55:18.218Z,4.54
2023-06-29T08:57:44.805Z,4.17
2023-06-29T09:00:11.756Z,4.46
2023-06-29T09:02:38.452Z,4.46
2023-06-29T09:05:05.067Z,4.68
2023-06-29T09:07:31.605Z,4.47
2023-06-29T09:09:58.305Z,4.33
2023-06-29T09:12:24.912Z,4.24
2023-06-29T09:14:51.559Z,4.36
2023-06-29T09:17:18.131Z,4.55
2023-06-29T09:19:44.711Z,4.44
2023-06-29T09:22:11.345Z,4.23
2023-06-29T09:24:46.453Z,4.01
2023-06-29T09:27:16.640Z,4.13
2023-06-29T09:29:43.103Z,4.28
2023-06-29T09:32:09.691Z,4.34
2023-06-29T09:34:36.320Z,4.13
2023-06-29T09:37:02.933Z,4.27
2023-06-29T09:39:29.445Z,4.34
2023-06-29T09:41:56.122Z,4.09
2023-06-29T09:44:22.799Z,4.07
2023-06-29T09:49:19.002Z,4.14
2023-06-29T09:51:45.590Z,4.20
2023-06-29T09:54:12.290Z,4.11
2023-06-29T09:56:38.820Z,4.28
2023-06-29T09:59:05.326Z,4.39
2023-06-29T10:01:32.062Z,4.31
2023-06-29T10:03:58.797Z,4.16
2023-06-29T10:06:25.380Z,4.44
2023-06-29T10:08:51.896Z,4.20
2023-06-29T10:11:18.453Z,4.22
2023-06-29T10:13:45.120Z,4.21
2023-06-29T10:16:11.661Z,4.15
2023-06-29T10:18:38.223Z,4.11
2023-06-29T10:21:04.826Z,4.12
2023-06-29T10:23:31.453Z,4.28
2023-06-29T10:25:57.999Z,4.02
2023-06-29T10:28:24.543Z,4.27
2023-06-29T10:30:51.089Z,4.15
2023-06-29T10:33:17.601Z,4.13
2023-06-29T10:35:44.173Z,4.24
2023-06-29T10:38:10.876Z,4.13
2023-06-29T10:40:37.509Z,3.85
2023-06-29T10:43:04.166Z,4.37
2023-06-29T10:45:30.700Z,4.28
2023-06-29T10:47:57.384Z,4.00
2023-06-29T10:50:24.017Z,4.12
2023-06-29T10:52:50.556Z,4.37
2023-06-29T10:55:17.024Z,4.20
2023-06-29T10:57:43.583Z,4.27
2023-06-29T11:00:10.236Z,4.26
2023-06-29T11:02:36.784Z,3.99
2023-06-29T11:05:03.389Z,4.25
2023-06-29T11:07:30.066Z,4.19
2023-06-29T11:09:56.662Z,5.76
2023-06-29T11:12:23.182Z,6.01
2023-06-29T11:14:54.123Z,4.55
2023-06-29T11:17:29.248Z,4.45
2023-06-29T11:19:55.771Z,4.38
2023-06-29T11:22:22.407Z,4.60
2023-06-29T11:24:49.025Z,4.25
2023-06-29T11:27:15.628Z,4.40
2023-06-29T11:29:42.213Z,4.25
2023-06-29T11:32:08.831Z,4.18
2023-06-29T11:34:35.394Z,4.07
2023-06-29T11:37:14.936Z,4.30
2023-06-29T11:39:42.963Z,4.17
2023-06-29T11:42:09.484Z,4.45
2023-06-29T11:44:36.188Z,4.26
2023-06-29T11:47:18.383Z,4.15
2023-06-29T11:49:49.262Z,4.17
2023-06-29T11:52:15.851Z,4.49
2023-06-29T11:54:43.044Z,4.28
2023-06-29T11:57:10.050Z,4.21
2023-06-29T11:59:36.720Z,4.39
2023-06-29T12:02:03.365Z,4.57
2023-06-29T12:04:29.989Z,6.46
2023-06-29T12:06:56.671Z,4.71
2023-06-29T12:09:23.277Z,4.75
2023-06-29T12:11:49.815Z,4.70
2023-06-29T12:14:16.377Z,4.36
2023-06-29T12:19:12.577Z,4.61
2023-06-29T12:21:39.745Z,4.71
2023-06-29T12:24:06.554Z,5.32
2023-06-29T12:26:33.210Z,4.63
2023-06-29T12:28:59.835Z,5.14
2023-06-29T12:31:26.597Z,5.32
2023-06-29T12:33:53.292Z,5.20
2023-06-29T12:36:19.888Z,5.05
2023-06-29T12:38:46.522Z,4.86
2023-06-29T12:41:13.128Z,4.83
2023-06-29T12:43:39.729Z,4.73
2023-06-29T12:46:06.321Z,4.93
2023-06-29T12:48:32.901Z,4.70
2023-06-29T12:50:59.523Z,4.80
2023-06-29T12:53:26.065Z,5.03
2023-06-29T12:55:52.668Z,4.73
2023-06-29T12:58:19.361Z,4.71
2023-06-29T13:00:45.927Z,4.95
2023-06-29T13:03:12.784Z,4.82
2023-06-29T13:05:39.586Z,4.74
2023-06-29T13:08:06.185Z,5.05
2023-06-29T13:10:34.282Z,4.62
2023-06-29T13:13:01.058Z,4.64
2023-06-29T13:15:27.726Z,4.63
2023-06-29T13:17:54.405Z,4.78
2023-06-29T13:20:21.095Z,4.55
2023-06-29T13:22:47.716Z,4.57
2023-06-29T13:25:14.348Z,4.89
2023-06-29T13:27:40.951Z,4.53
2023-06-29T13:30:07.566Z,4.60
2023-06-29T13:32:34.075Z,4.61
2023-06-29T13:35:00.609Z,4.64
2023-06-29T13:37:27.222Z,4.38
2023-06-29T13:39:53.755Z,4.33
2023-06-29T13:42:20.356Z,4.62
2023-06-29T13:44:46.923Z,4.45
2023-06-29T13:47:13.539Z,4.54
2023-06-29T13:49:40.094Z,4.57
2023-06-29T13:52:06.649Z,4.35
2023-06-29T13:54:33.302Z,4.42
2023-06-29T13:56:59.829Z,4.35
2023-06-29T13:59:26.438Z,4.32
2023-06-29T14:01:53.170Z,4.46
2023-06-29T14:04:19.911Z,4.36
2023-06-29T14:06:46.514Z,4.60
2023-06-29T14:09:13.120Z,4.54
2023-06-29T14:11:39.799Z,4.47
2023-06-29T14:14:06.287Z,4.41
2023-06-29T14:16:32.889Z,4.54
2023-06-29T14:18:59.472Z,4.35
2023-06-29T14:21:26.162Z,4.40
2023-06-29T14:23:52.776Z,4.02
2023-06-29T14:26:19.464Z,4.49
2023-06-29T14:28:46.099Z,4.35
2023-06-29T14:31:12.716Z,4.58
2023-06-29T14:33:40.397Z,4.29
2023-06-29T14:36:07.005Z,4.12
2023-06-29T14:38:33.557Z,4.41
2023-06-29T14:41:00.178Z,4.20
2023-06-29T14:43:26.716Z,4.57
2023-06-29T14:45:53.262Z,4.11
2023-06-29T14:48:19.847Z,4.19
2023-06-29T14:50:47.932Z,4.07
2023-06-29T14:53:15.982Z,4.17
2023-06-29T14:55:42.578Z,4.19
2023-06-29T14:58:09.218Z,4.40
2023-06-29T15:00:35.703Z,4.17
2023-06-29T15:03:02.562Z,4.32
2023-06-29T15:05:29.160Z,4.13
2023-06-29T15:07:55.640Z,3.95
2023-06-29T15:10:22.110Z,4.03
2023-06-29T15:12:48.628Z,3.98
2023-06-29T15:15:15.126Z,3.99
2023-06-29T15:17:41.752Z,4.06
2023-06-29T15:20:08.353Z,4.21
2023-06-29T15:22:34.878Z,4.16
2023-06-29T15:25:01.363Z,4.28
2023-06-29T15:27:27.867Z,4.07
2023-06-29T15:29:54.648Z,3.99
2023-06-29T15:32:21.214Z,4.34
2023-06-29T15:34:47.753Z,4.08
2023-06-29T15:37:14.235Z,4.24
2023-06-29T15:39:40.772Z,3.92
2023-06-29T15:42:07.322Z,4.14
2023-06-29T15:44:33.822Z,4.12
2023-06-29T15:47:00.335Z,4.09
2023-06-29T15:49:26.826Z,4.35
2023-06-29T15:51:53.408Z,4.45
2023-06-29T15:54:19.901Z,5.11
2023-06-29T15:56:46.448Z,5.79
2023-06-29T15:59:12.968Z,5.19
2023-06-29T16:01:39.595Z,5.94
2023-06-29T16:04:06.404Z,6.17
2023-06-29T16:06:33.002Z,5.77
2023-06-29T16:08:59.584Z,5.70
2023-06-29T16:11:26.086Z,5.96
2023-06-29T16:13:52.608Z,6.17
2023-06-29T16:16:20.383Z,6.16
2023-06-29T16:18:46.917Z,6.44
2023-06-29T16:21:13.468Z,6.44
2023-06-29T16:23:39.967Z,6.41
2023-06-29T16:26:06.609Z,6.84
2023-06-29T16:28:34.158Z,7.01
2023-06-29T16:31:01.244Z,6.80
2023-06-29T16:33:27.866Z,6.78
2023-06-29T16:35:54.414Z,6.84
2023-06-29T16:38:21.007Z,7.14
2023-06-29T16:40:47.544Z,7.33
2023-06-29T16:43:14.258Z,6.86
2023-06-29T16:45:40.778Z,7.53
2023-06-29T16:48:08.056Z,7.45
2023-06-29T16:50:34.645Z,8.15
2023-06-29T16:53:01.246Z,8.41
2023-06-29T16:55:27.740Z,8.04
2023-06-29T16:57:54.355Z,8.21
2023-06-29T17:00:20.962Z,8.45
2023-06-29T17:02:47.655Z,8.54
2023-06-29T17:05:14.420Z,8.55
2023-06-29T17:07:41.102Z,8.28
2023-06-29T17:10:07.693Z,7.98
2023-06-29T17:12:34.329Z,8.49
2023-06-29T17:15:00.948Z,8.26
2023-06-29T17:17:30.616Z,8.21
2023-06-29T17:19:57.167Z,8.35
2023-06-29T17:22:23.652Z,7.91
2023-06-29T17:24:50.276Z,7.94
2023-06-29T17:27:16.874Z,7.74
2023-06-29T17:29:43.499Z,8.22
2023-06-29T17:32:10.100Z,8.10
2023-06-29T17:34:36.718Z,8.20
2023-06-29T17:37:03.508Z,7.80
2023-06-29T17:39:30.071Z,7.93
2023-06-29T17:41:56.622Z,8.49
2023-06-29T17:44:23.268Z,8.38
2023-06-29T17:46:49.908Z,8.28
2023-06-29T17:49:16.518Z,8.82
2023-06-29T17:51:42.982Z,8.20
2023-06-29T17:54:09.823Z,8.32
2023-06-29T17:56:36.408Z,8.00
2023-06-29T17:59:02.944Z,7.99
2023-06-29T18:01:29.746Z,8.12
2023-06-29T18:03:56.534Z,8.04
2023-06-29T18:06:23.228Z,7.64
2023-06-29T18:08:49.861Z,8.04
2023-06-29T18:11:16.345Z,8.32
2023-06-29T18:13:42.862Z,7.73
2023-06-29T18:16:09.456Z,8.33
2023-06-29T18:18:36.075Z,7.87
2023-06-29T18:21:02.666Z,7.56
2023-06-29T18:23:29.306Z,8.23
2023-06-29T18:25:55.874Z,8.27
2023-06-29T18:28:22.379Z,8.17
2023-06-29T18:30:48.988Z,7.95
2023-06-29T18:33:15.726Z,8.41
2023-06-29T18:35:42.308Z,7.98
2023-06-29T18:38:08.938Z,8.13
2023-06-29T18:40:35.491Z,7.81
2023-06-29T18:43:02.193Z,8.24
2023-06-29T18:45:29.066Z,8.30
2023-06-29T18:47:55.605Z,8.38
2023-06-29T18:50:22.206Z,8.08
2023-06-29T18:52:48.730Z,8.61
2023-06-29T18:55:15.205Z,8.01
2023-06-29T18:57:41.756Z,8.14
2023-06-29T19:00:08.389Z,8.35
2023-06-29T19:02:35.045Z,8.32
2023-06-29T19:05:01.699Z,8.26
2023-06-29T19:07:28.282Z,8.28
2023-06-29T19:09:55.290Z,8.64
2023-06-29T19:12:21.906Z,8.50
2023-06-29T19:14:48.406Z,8.42
2023-06-29T19:17:14.971Z,8.52
2023-06-29T19:19:41.624Z,8.93
2023-06-29T19:22:08.250Z,8.68
2023-06-29T19:24:35.132Z,8.90
2023-06-29T19:27:01.685Z,8.57
2023-06-29T19:29:28.767Z,8.65
2023-06-29T19:31:56.213Z,8.91
2023-06-29T19:34:22.982Z,8.63
2023-06-29T19:36:49.525Z,8.55
2023-06-29T19:39:16.104Z,8.45
2023-06-29T19:41:42.838Z,8.54
2023-06-29T19:44:09.897Z,8.58
2023-06-29T19:46:36.685Z,8.75
2023-06-29T19:49:03.314Z,8.77
2023-06-29T19:51:29.787Z,8.83
2023-06-29T19:53:56.405Z,8.81
2023-06-29T19:56:22.914Z,8.81
2023-06-29T19:58:49.541Z,8.82
2023-06-29T20:01:16.072Z,8.55
2023-06-29T20:03:42.697Z,8.86
2023-06-29T20:06:09.233Z,8.14
2023-06-29T20:08:35.740Z,9.33
2023-06-29T20:11:02.258Z,11.52
2023-06-29T20:13:28.801Z,9.48
2023-06-29T20:15:55.391Z,9.36
2023-06-29T20:18:21.995Z,9.18
2023-06-29T20:20:48.568Z,9.01
2023-06-29T20:23:15.160Z,9.02
2023-06-29T20:25:42.813Z,8.81
2023-06-29T20:28:09.763Z,8.68
2023-06-29T20:30:36.356Z,8.88
2023-06-29T20:33:03.009Z,9.12
2023-06-29T20:35:29.594Z,8.49
2023-06-29T20:37:56.155Z,8.65
2023-06-29T20:40:22.649Z,8.99
2023-06-29T20:42:49.197Z,8.75
2023-06-29T20:45:15.731Z,8.56
2023-06-29T20:47:42.320Z,8.97
2023-06-29T20:50:09.016Z,8.68
2023-06-29T20:52:35.632Z,8.83
2023-06-29T20:55:02.266Z,8.67
2023-06-29T20:57:28.846Z,8.53
2023-06-29T20:59:55.484Z,8.93
2023-06-29T21:02:22.238Z,9.19
2023-06-29T21:04:49.380Z,8.96
2023-06-29T21:07:16.172Z,8.70
2023-06-29T21:09:42.702Z,8.69
2023-06-29T21:12:09.248Z,8.73
2023-06-29T21:14:35.858Z,9.00
2023-06-29T21:17:02.407Z,8.75
2023-06-29T21:19:28.911Z,8.98
2023-06-29T21:21:55.520Z,8.67
2023-06-29T21:24:22.214Z,8.62
2023-06-29T21:26:48.907Z,8.81
2023-06-29T21:29:33.391Z,8.58
2023-06-29T21:32:02.251Z,8.66
2023-06-29T21:34:28.855Z,8.65
2023-06-29T21:36:55.523Z,8.68
2023-06-29T21:39:21.973Z,8.60
2023-06-29T21:41:48.479Z,8.46
2023-06-29T21:44:15.022Z,8.73
2023-06-29T21:46:41.651Z,8.72
2023-06-29T21:49:08.322Z,8.37
2023-06-29T21:51:35.009Z,9.01
2023-06-29T21:54:01.716Z,8.58
2023-06-29T21:56:28.381Z,8.32
2023-06-29T21:58:54.970Z,8.43
2023-06-29T22:01:21.538Z,8.44
2023-06-29T22:03:48.038Z,8.33
2023-06-29T22:06:14.626Z,8.65
2023-06-29T22:08:41.199Z,8.27
2023-06-29T22:11:07.826Z,8.24
2023-06-29T22:13:34.289Z,8.49
2023-06-29T22:16:00.890Z,8.58
2023-06-29T22:18:27.470Z,8.15
2023-06-29T22:20:53.967Z,8.51
2023-06-29T22:23:20.493Z,8.63
2023-06-29T22:25:47.117Z,8.63
2023-06-29T22:28:13.833Z,8.30
2023-06-29T22:30:40.475Z,8.21
2023-06-29T22:33:07.129Z,8.26
2023-06-29T22:35:33.684Z,8.42
2023-06-29T22:38:00.299Z,8.48
2023-06-29T22:40:26.838Z,8.32
2023-06-29T22:42:53.389Z,8.29
2023-06-29T22:45:19.948Z,8.50
2023-06-29T22:47:46.516Z,8.76
2023-06-29T22:50:13.025Z,8.17
2023-06-29T22:52:39.605Z,8.33
2023-06-29T22:55:06.156Z,8.17
2023-06-29T22:57:32.723Z,8.29
2023-06-29T22:59:59.273Z,8.57
2023-06-29T23:02:25.836Z,8.33
2023-06-29T23:04:52.481Z,7.78
2023-06-29T23:07:19.015Z,8.10
2023-06-29T23:09:45.671Z,8.53
2023-06-29T23:12:12.115Z,8.27
2023-06-29T23:14:38.801Z,8.38
2023-06-29T23:17:05.386Z,8.17
2023-06-29T23:19:31.894Z,8.38
2023-06-29T23:21:58.492Z,8.71
2023-06-29T23:24:25.021Z,8.15
2023-06-29T23:26:51.606Z,8.10
2023-06-29T23:29:18.200Z,8.51
2023-06-29T23:31:44.904Z,8.18
2023-06-29T23:34:11.505Z,7.96
2023-06-29T23:36:37.989Z,7.91
2023-06-29T23:39:04.527Z,8.33
2023-06-29T23:41:31.104Z,8.14
2023-06-29T23:43:57.625Z,7.90
2023-06-29T23:46:24.218Z,8.19
2023-06-29T23:48:50.891Z,7.86
2023-06-29T23:51:17.398Z,7.71
2023-06-29T23:53:43.862Z,8.23
2023-06-29T23:56:10.394Z,8.07
2023-06-29T23:58:36.936Z,7.87
